sensor_id;sensor_type;location;lat;lon;timestamp;temperature;humidity
17918;DHT22;9084;50.956;3.106;2024-02-23T00:01:09;6.20;36.10
17918;DHT22;9084;50.956;3.106;2024-02-23T00:03:37;6.30;74.80
17918;DHT22;9084;50.956;3.106;2024-02-23T00:06:05;6.20;72.40
17918;DHT22;9084;50.956;3.106;2024-02-23T00:08:30;6.10;41.30
17918;DHT22;9084;50.956;3.106;2024-02-23T00:10:56;6.00;30.50
17918;DHT22;9084;50.956;3.106;2024-02-23T00:13:24;5.90;25.30
17918;DHT22;9084;50.956;3.106;2024-02-23T00:15:49;5.80;9.60
17918;DHT22;9084;50.956;3.106;2024-02-23T00:18:15;5.80;22.00
17918;DHT22;9084;50.956;3.106;2024-02-23T00:20:42;5.70;38.90
17918;DHT22;9084;50.956;3.106;2024-02-23T00:23:07;5.70;52.80
17918;DHT22;9084;50.956;3.106;2024-02-23T00:25:33;5.60;96.10
17918;DHT22;9084;50.956;3.106;2024-02-23T00:44:49;4.90;99.90
17918;DHT22;9084;50.956;3.106;2024-02-23T00:47:15;5.60;99.90
17918;DHT22;9084;50.956;3.106;2024-02-23T00:49:40;5.60;99.90
17918;DHT22;9084;50.956;3.106;2024-02-23T00:52:08;5.60;99.90
17918;DHT22;9084;50.956;3.106;2024-02-23T00:54:34;5.60;99.90
17918;DHT22;9084;50.956;3.106;2024-02-23T00:56:59;5.60;99.90
17918;DHT22;9084;50.956;3.106;2024-02-23T00:59:25;5.60;99.90
17918;DHT22;9084;50.956;3.106;2024-02-23T01:01:51;5.60;99.90
17918;DHT22;9084;50.956;3.106;2024-02-23T01:04:18;5.60;99.90
17918;DHT22;9084;50.956;3.106;2024-02-23T01:06:46;5.50;99.90
17918;DHT22;9084;50.956;3.106;2024-02-23T01:09:12;5.50;99.90
17918;DHT22;9084;50.956;3.106;2024-02-23T01:11:40;5.50;99.90
17918;DHT22;9084;50.956;3.106;2024-02-23T01:14:08;5.50;99.90
17918;DHT22;9084;50.956;3.106;2024-02-23T01:16:35;5.40;99.90
17918;DHT22;9084;50.956;3.106;2024-02-23T01:19:00;5.40;99.90
17918;DHT22;9084;50.956;3.106;2024-02-23T01:21:28;5.40;99.90
17918;DHT22;9084;50.956;3.106;2024-02-23T01:23:54;5.40;99.90
17918;DHT22;9084;50.956;3.106;2024-02-23T01:26:19;5.40;99.90
17918;DHT22;9084;50.956;3.106;2024-02-23T01:28:45;5.40;99.90
17918;DHT22;9084;50.956;3.106;2024-02-23T01:31:11;5.50;99.90
17918;DHT22;9084;50.956;3.106;2024-02-23T01:33:38;5.50;99.90
17918;DHT22;9084;50.956;3.106;2024-02-23T01:36:09;5.50;99.90
17918;DHT22;9084;50.956;3.106;2024-02-23T01:38:35;5.50;99.90
17918;DHT22;9084;50.956;3.106;2024-02-23T01:41:01;5.50;99.90
17918;DHT22;9084;50.956;3.106;2024-02-23T01:43:26;5.60;99.90
17918;DHT22;9084;50.956;3.106;2024-02-23T01:45:57;5.70;99.90
17918;DHT22;9084;50.956;3.106;2024-02-23T01:48:25;5.70;99.90
17918;DHT22;9084;50.956;3.106;2024-02-23T01:50:52;5.80;99.90
17918;DHT22;9084;50.956;3.106;2024-02-23T01:53:18;5.90;99.90
17918;DHT22;9084;50.956;3.106;2024-02-23T01:55:46;5.90;99.90
17918;DHT22;9084;50.956;3.106;2024-02-23T01:58:12;6.00;99.90
17918;DHT22;9084;50.956;3.106;2024-02-23T02:00:41;6.00;99.90
17918;DHT22;9084;50.956;3.106;2024-02-23T02:03:08;6.00;99.90
17918;DHT22;9084;50.956;3.106;2024-02-23T02:05:36;6.00;99.90
17918;DHT22;9084;50.956;3.106;2024-02-23T02:08:03;6.10;99.90
17918;DHT22;9084;50.956;3.106;2024-02-23T02:10:28;6.10;99.90
17918;DHT22;9084;50.956;3.106;2024-02-23T02:12:54;6.10;99.90
17918;DHT22;9084;50.956;3.106;2024-02-23T02:15:20;6.10;99.90
17918;DHT22;9084;50.956;3.106;2024-02-23T02:17:47;6.10;99.90
17918;DHT22;9084;50.956;3.106;2024-02-23T02:20:13;6.10;99.90
17918;DHT22;9084;50.956;3.106;2024-02-23T02:22:39;6.10;99.90
17918;DHT22;9084;50.956;3.106;2024-02-23T02:25:07;6.10;99.90
17918;DHT22;9084;50.956;3.106;2024-02-23T02:27:33;6.10;99.90
17918;DHT22;9084;50.956;3.106;2024-02-23T02:29:59;6.10;99.90
17918;DHT22;9084;50.956;3.106;2024-02-23T02:32:24;6.20;99.90
17918;DHT22;9084;50.956;3.106;2024-02-23T02:34:53;6.10;99.90
17918;DHT22;9084;50.956;3.106;2024-02-23T02:37:21;6.20;99.90
17918;DHT22;9084;50.956;3.106;2024-02-23T02:39:46;6.20;99.90
17918;DHT22;9084;50.956;3.106;2024-02-23T02:42:12;6.20;99.90
17918;DHT22;9084;50.956;3.106;2024-02-23T02:44:40;6.20;99.90
17918;DHT22;9084;50.956;3.106;2024-02-23T02:47:08;6.20;99.90
17918;DHT22;9084;50.956;3.106;2024-02-23T02:49:33;6.20;99.90
17918;DHT22;9084;50.956;3.106;2024-02-23T02:51:59;6.30;99.90
17918;DHT22;9084;50.956;3.106;2024-02-23T02:54:24;6.20;99.90
17918;DHT22;9084;50.956;3.106;2024-02-23T02:56:50;6.20;99.90
17918;DHT22;9084;50.956;3.106;2024-02-23T02:59:20;6.20;99.90
17918;DHT22;9084;50.956;3.106;2024-02-23T03:01:45;6.20;99.90
17918;DHT22;9084;50.956;3.106;2024-02-23T03:04:15;6.20;99.90
17918;DHT22;9084;50.956;3.106;2024-02-23T03:06:41;6.10;99.90
17918;DHT22;9084;50.956;3.106;2024-02-23T03:09:06;6.10;99.90
17918;DHT22;9084;50.956;3.106;2024-02-23T03:11:32;6.10;99.90
17918;DHT22;9084;50.956;3.106;2024-02-23T03:13:58;6.00;99.90
17918;DHT22;9084;50.956;3.106;2024-02-23T03:16:26;6.00;99.90
17918;DHT22;9084;50.956;3.106;2024-02-23T03:18:52;5.90;99.90
17918;DHT22;9084;50.956;3.106;2024-02-23T03:21:20;5.90;99.90
17918;DHT22;9084;50.956;3.106;2024-02-23T03:23:45;5.90;99.90
17918;DHT22;9084;50.956;3.106;2024-02-23T03:26:11;5.90;99.90
17918;DHT22;9084;50.956;3.106;2024-02-23T03:28:39;5.90;99.90
17918;DHT22;9084;50.956;3.106;2024-02-23T03:31:04;5.90;99.90
17918;DHT22;9084;50.956;3.106;2024-02-23T03:33:32;6.00;99.90
17918;DHT22;9084;50.956;3.106;2024-02-23T03:35:58;6.10;99.90
17918;DHT22;9084;50.956;3.106;2024-02-23T03:38:23;6.10;99.90
17918;DHT22;9084;50.956;3.106;2024-02-23T03:40:49;6.10;99.90
17918;DHT22;9084;50.956;3.106;2024-02-23T03:43:15;6.10;99.90
17918;DHT22;9084;50.956;3.106;2024-02-23T03:45:40;6.20;99.90
17918;DHT22;9084;50.956;3.106;2024-02-23T03:48:08;6.20;99.90
17918;DHT22;9084;50.956;3.106;2024-02-23T03:50:36;6.20;99.90
17918;DHT22;9084;50.956;3.106;2024-02-23T03:53:02;6.20;99.90
17918;DHT22;9084;50.956;3.106;2024-02-23T03:55:29;6.30;99.90
17918;DHT22;9084;50.956;3.106;2024-02-23T03:57:54;6.30;99.90
17918;DHT22;9084;50.956;3.106;2024-02-23T04:00:20;6.40;99.90
17918;DHT22;9084;50.956;3.106;2024-02-23T04:02:48;6.40;99.90
17918;DHT22;9084;50.956;3.106;2024-02-23T04:05:14;6.40;99.90
17918;DHT22;9084;50.956;3.106;2024-02-23T04:07:40;6.40;99.90
17918;DHT22;9084;50.956;3.106;2024-02-23T04:10:06;6.50;99.90
17918;DHT22;9084;50.956;3.106;2024-02-23T04:12:34;6.50;99.90
17918;DHT22;9084;50.956;3.106;2024-02-23T04:15:02;6.50;99.90
17918;DHT22;9084;50.956;3.106;2024-02-23T04:17:28;6.50;98.60
17918;DHT22;9084;50.956;3.106;2024-02-23T04:19:53;6.50;97.90
17918;DHT22;9084;50.956;3.106;2024-02-23T04:22:19;6.40;91.80
17918;DHT22;9084;50.956;3.106;2024-02-23T04:24:45;6.40;88.60
17918;DHT22;9084;50.956;3.106;2024-02-23T04:27:10;6.40;94.30
17918;DHT22;9084;50.956;3.106;2024-02-23T04:29:36;6.40;95.40
17918;DHT22;9084;50.956;3.106;2024-02-23T04:32:02;6.40;92.10
17918;DHT22;9084;50.956;3.106;2024-02-23T04:34:31;6.30;85.60
17918;DHT22;9084;50.956;3.106;2024-02-23T04:36:56;6.30;92.10
17918;DHT22;9084;50.956;3.106;2024-02-23T04:39:22;6.20;91.70
17918;DHT22;9084;50.956;3.106;2024-02-23T04:41:50;6.20;93.80
17918;DHT22;9084;50.956;3.106;2024-02-23T04:44:16;6.20;94.00
17918;DHT22;9084;50.956;3.106;2024-02-23T04:46:42;6.10;94.90
17918;DHT22;9084;50.956;3.106;2024-02-23T04:49:07;6.10;98.20
17918;DHT22;9084;50.956;3.106;2024-02-23T04:51:33;6.10;99.90
17918;DHT22;9084;50.956;3.106;2024-02-23T04:54:01;6.10;99.90
17918;DHT22;9084;50.956;3.106;2024-02-23T04:56:27;6.10;98.30
17918;DHT22;9084;50.956;3.106;2024-02-23T04:58:52;6.10;99.20
17918;DHT22;9084;50.956;3.106;2024-02-23T05:01:20;6.10;99.90
17918;DHT22;9084;50.956;3.106;2024-02-23T05:03:48;6.20;98.40
17918;DHT22;9084;50.956;3.106;2024-02-23T05:06:16;6.20;99.90
17918;DHT22;9084;50.956;3.106;2024-02-23T05:08:41;6.20;93.10
17918;DHT22;9084;50.956;3.106;2024-02-23T05:11:07;6.20;90.70
17918;DHT22;9084;50.956;3.106;2024-02-23T05:13:33;6.20;86.90
17918;DHT22;9084;50.956;3.106;2024-02-23T05:15:58;6.30;92.00
17918;DHT22;9084;50.956;3.106;2024-02-23T05:18:24;6.20;79.30
17918;DHT22;9084;50.956;3.106;2024-02-23T05:20:51;6.20;74.00
17918;DHT22;9084;50.956;3.106;2024-02-23T05:23:16;6.20;80.00
17918;DHT22;9084;50.956;3.106;2024-02-23T05:25:44;6.20;82.00
17918;DHT22;9084;50.956;3.106;2024-02-23T05:28:12;6.20;74.70
17918;DHT22;9084;50.956;3.106;2024-02-23T05:30:38;6.20;79.20
17918;DHT22;9084;50.956;3.106;2024-02-23T05:33:03;6.20;85.80
17918;DHT22;9084;50.956;3.106;2024-02-23T05:35:30;6.20;73.10
17918;DHT22;9084;50.956;3.106;2024-02-23T05:37:55;6.10;85.80
17918;DHT22;9084;50.956;3.106;2024-02-23T05:40:21;6.10;90.80
17918;DHT22;9084;50.956;3.106;2024-02-23T05:42:47;6.20;92.10
17918;DHT22;9084;50.956;3.106;2024-02-23T05:45:12;6.20;72.20
17918;DHT22;9084;50.956;3.106;2024-02-23T05:47:40;6.20;81.20
17918;DHT22;9084;50.956;3.106;2024-02-23T05:50:09;6.30;65.40
17918;DHT22;9084;50.956;3.106;2024-02-23T05:52:35;6.30;62.60
17918;DHT22;9084;50.956;3.106;2024-02-23T05:55:02;6.30;66.80
17918;DHT22;9084;50.956;3.106;2024-02-23T05:57:29;6.30;74.30
17918;DHT22;9084;50.956;3.106;2024-02-23T05:59:57;6.30;73.30
17918;DHT22;9084;50.956;3.106;2024-02-23T06:02:25;6.40;69.00
17918;DHT22;9084;50.956;3.106;2024-02-23T06:04:53;6.40;65.30
17918;DHT22;9084;50.956;3.106;2024-02-23T06:07:18;6.40;53.90
17918;DHT22;9084;50.956;3.106;2024-02-23T06:09:49;6.40;50.40
17918;DHT22;9084;50.956;3.106;2024-02-23T06:12:17;6.40;46.00
17918;DHT22;9084;50.956;3.106;2024-02-23T06:14:43;6.40;41.20
17918;DHT22;9084;50.956;3.106;2024-02-23T06:17:08;6.40;50.00
17918;DHT22;9084;50.956;3.106;2024-02-23T06:19:34;6.50;48.40
17918;DHT22;9084;50.956;3.106;2024-02-23T06:22:02;6.50;51.40
17918;DHT22;9084;50.956;3.106;2024-02-23T06:24:28;6.50;41.00
17918;DHT22;9084;50.956;3.106;2024-02-23T06:26:58;6.50;46.70
17918;DHT22;9084;50.956;3.106;2024-02-23T06:29:25;6.50;44.50
17918;DHT22;9084;50.956;3.106;2024-02-23T06:31:52;6.50;64.80
17918;DHT22;9084;50.956;3.106;2024-02-23T06:34:19;6.50;99.90
17918;DHT22;9084;50.956;3.106;2024-02-23T06:36:44;6.50;99.90
17918;DHT22;9084;50.956;3.106;2024-02-23T06:39:12;6.50;99.90
17918;DHT22;9084;50.956;3.106;2024-02-23T06:41:40;6.40;99.90
17918;DHT22;9084;50.956;3.106;2024-02-23T06:44:06;6.40;99.90
17918;DHT22;9084;50.956;3.106;2024-02-23T06:46:32;6.30;99.90
17918;DHT22;9084;50.956;3.106;2024-02-23T06:48:57;6.30;99.90
17918;DHT22;9084;50.956;3.106;2024-02-23T06:51:23;6.30;99.90
17918;DHT22;9084;50.956;3.106;2024-02-23T06:53:48;6.30;99.90
17918;DHT22;9084;50.956;3.106;2024-02-23T06:56:14;6.30;99.90
17918;DHT22;9084;50.956;3.106;2024-02-23T06:58:40;6.30;99.90
17918;DHT22;9084;50.956;3.106;2024-02-23T07:01:06;6.20;99.90
17918;DHT22;9084;50.956;3.106;2024-02-23T07:03:37;6.20;99.90
17918;DHT22;9084;50.956;3.106;2024-02-23T07:06:03;6.20;99.90
17918;DHT22;9084;50.956;3.106;2024-02-23T07:08:29;6.20;99.90
17918;DHT22;9084;50.956;3.106;2024-02-23T07:10:55;6.20;99.90
17918;DHT22;9084;50.956;3.106;2024-02-23T07:13:21;6.20;99.90
17918;DHT22;9084;50.956;3.106;2024-02-23T07:15:46;6.20;99.90
17918;DHT22;9084;50.956;3.106;2024-02-23T07:18:12;6.20;99.90
17918;DHT22;9084;50.956;3.106;2024-02-23T07:20:38;6.20;99.90
17918;DHT22;9084;50.956;3.106;2024-02-23T07:23:06;6.20;99.90
17918;DHT22;9084;50.956;3.106;2024-02-23T07:25:33;6.20;99.90
17918;DHT22;9084;50.956;3.106;2024-02-23T07:27:58;6.30;99.90
17918;DHT22;9084;50.956;3.106;2024-02-23T07:30:24;6.30;99.90
17918;DHT22;9084;50.956;3.106;2024-02-23T07:32:52;6.30;99.90
17918;DHT22;9084;50.956;3.106;2024-02-23T07:35:20;6.30;99.90
17918;DHT22;9084;50.956;3.106;2024-02-23T07:37:49;6.40;99.90
17918;DHT22;9084;50.956;3.106;2024-02-23T07:40:14;6.40;99.90
17918;DHT22;9084;50.956;3.106;2024-02-23T07:42:40;6.50;99.90
17918;DHT22;9084;50.956;3.106;2024-02-23T07:45:07;6.50;99.90
17918;DHT22;9084;50.956;3.106;2024-02-23T07:47:32;6.60;99.90
17918;DHT22;9084;50.956;3.106;2024-02-23T07:50:01;6.70;99.90
17918;DHT22;9084;50.956;3.106;2024-02-23T07:52:26;6.70;99.90
17918;DHT22;9084;50.956;3.106;2024-02-23T07:54:52;6.70;99.90
17918;DHT22;9084;50.956;3.106;2024-02-23T07:57:21;6.80;99.90
17918;DHT22;9084;50.956;3.106;2024-02-23T07:59:48;6.80;99.90
17918;DHT22;9084;50.956;3.106;2024-02-23T08:02:14;6.90;99.90
17918;DHT22;9084;50.956;3.106;2024-02-23T08:04:42;6.90;99.90
17918;DHT22;9084;50.956;3.106;2024-02-23T08:07:08;7.00;99.90
17918;DHT22;9084;50.956;3.106;2024-02-23T08:09:37;7.00;99.90
17918;DHT22;9084;50.956;3.106;2024-02-23T08:12:04;6.90;99.90
17918;DHT22;9084;50.956;3.106;2024-02-23T08:14:30;6.90;99.90
17918;DHT22;9084;50.956;3.106;2024-02-23T08:16:58;7.00;99.90
17918;DHT22;9084;50.956;3.106;2024-02-23T08:19:24;6.90;99.90
17918;DHT22;9084;50.956;3.106;2024-02-23T08:21:50;7.00;99.90
17918;DHT22;9084;50.956;3.106;2024-02-23T08:24:16;7.00;99.90
17918;DHT22;9084;50.956;3.106;2024-02-23T08:26:44;7.00;99.90
17918;DHT22;9084;50.956;3.106;2024-02-23T08:29:09;7.00;99.90
17918;DHT22;9084;50.956;3.106;2024-02-23T08:31:40;7.00;99.90
17918;DHT22;9084;50.956;3.106;2024-02-23T08:34:08;7.00;99.90
17918;DHT22;9084;50.956;3.106;2024-02-23T08:36:36;7.00;99.90
17918;DHT22;9084;50.956;3.106;2024-02-23T08:39:02;7.10;99.90
17918;DHT22;9084;50.956;3.106;2024-02-23T08:41:29;7.10;99.90
17918;DHT22;9084;50.956;3.106;2024-02-23T08:43:55;7.20;99.90
17918;DHT22;9084;50.956;3.106;2024-02-23T08:46:23;7.30;99.30
17918;DHT22;9084;50.956;3.106;2024-02-23T08:48:51;7.30;91.20
17918;DHT22;9084;50.956;3.106;2024-02-23T08:51:19;7.40;88.30
17918;DHT22;9084;50.956;3.106;2024-02-23T08:53:45;7.40;70.40
17918;DHT22;9084;50.956;3.106;2024-02-23T08:56:11;7.50;75.00
17918;DHT22;9084;50.956;3.106;2024-02-23T08:58:41;7.50;46.60
17918;DHT22;9084;50.956;3.106;2024-02-23T09:01:07;7.60;56.80
17918;DHT22;9084;50.956;3.106;2024-02-23T09:03:34;7.60;32.00
17918;DHT22;9084;50.956;3.106;2024-02-23T09:06:00;7.50;28.50
17918;DHT22;9084;50.956;3.106;2024-02-23T09:08:25;7.60;40.00
17918;DHT22;9084;50.956;3.106;2024-02-23T09:10:51;7.60;32.90
17918;DHT22;9084;50.956;3.106;2024-02-23T09:13:17;7.70;21.20
17918;DHT22;9084;50.956;3.106;2024-02-23T09:15:45;7.70;7.20
17918;DHT22;9084;50.956;3.106;2024-02-23T09:18:10;7.60;9.60
17918;DHT22;9084;50.956;3.106;2024-02-23T09:20:38;7.60;6.90
17918;DHT22;9084;50.956;3.106;2024-02-23T09:23:04;7.60;14.80
17918;DHT22;9084;50.956;3.106;2024-02-23T09:25:30;7.60;20.90
17918;DHT22;9084;50.956;3.106;2024-02-23T09:27:58;7.60;24.10
17918;DHT22;9084;50.956;3.106;2024-02-23T09:30:24;7.60;24.10
17918;DHT22;9084;50.956;3.106;2024-02-23T09:32:52;7.60;27.40
17918;DHT22;9084;50.956;3.106;2024-02-23T09:35:17;7.60;43.10
17918;DHT22;9084;50.956;3.106;2024-02-23T09:37:43;7.60;45.80
17918;DHT22;9084;50.956;3.106;2024-02-23T09:40:10;7.70;37.70
17918;DHT22;9084;50.956;3.106;2024-02-23T09:42:35;7.70;37.40
17918;DHT22;9084;50.956;3.106;2024-02-23T09:45:05;7.80;43.80
17918;DHT22;9084;50.956;3.106;2024-02-23T09:47:34;7.80;32.40
17918;DHT22;9084;50.956;3.106;2024-02-23T09:50:01;7.80;22.40
17918;DHT22;9084;50.956;3.106;2024-02-23T09:52:29;7.90;13.50
17918;DHT22;9084;50.956;3.106;2024-02-23T09:54:54;7.80;24.10
17918;DHT22;9084;50.956;3.106;2024-02-23T09:57:23;7.80;6.90
17918;DHT22;9084;50.956;3.106;2024-02-23T09:59:49;7.90;18.30
17918;DHT22;9084;50.956;3.106;2024-02-23T10:02:17;8.00;15.80
17918;DHT22;9084;50.956;3.106;2024-02-23T10:04:43;8.10;6.40
17918;DHT22;9084;50.956;3.106;2024-02-23T10:07:09;8.10;1.30
17918;DHT22;9084;50.956;3.106;2024-02-23T10:09:35;8.20;9.10
17918;DHT22;9084;50.956;3.106;2024-02-23T10:12:04;8.20;1.00
17918;DHT22;9084;50.956;3.106;2024-02-23T10:14:30;8.20;1.00
17918;DHT22;9084;50.956;3.106;2024-02-23T10:16:56;8.20;1.00
17918;DHT22;9084;50.956;3.106;2024-02-23T10:19:22;8.10;1.00
17918;DHT22;9084;50.956;3.106;2024-02-23T10:21:54;8.10;1.00
17918;DHT22;9084;50.956;3.106;2024-02-23T10:24:20;8.10;1.00
17918;DHT22;9084;50.956;3.106;2024-02-23T10:26:46;8.10;1.00
17918;DHT22;9084;50.956;3.106;2024-02-23T10:29:12;8.00;1.00
17918;DHT22;9084;50.956;3.106;2024-02-23T10:31:40;8.00;1.00
17918;DHT22;9084;50.956;3.106;2024-02-23T10:34:10;8.10;1.00
17918;DHT22;9084;50.956;3.106;2024-02-23T10:36:43;8.10;1.00
17918;DHT22;9084;50.956;3.106;2024-02-23T10:39:15;8.00;1.00
17918;DHT22;9084;50.956;3.106;2024-02-23T10:41:51;8.00;1.00
17918;DHT22;9084;50.956;3.106;2024-02-23T10:44:21;8.00;1.00
17918;DHT22;9084;50.956;3.106;2024-02-23T10:46:47;7.90;1.00
17918;DHT22;9084;50.956;3.106;2024-02-23T10:49:20;7.90;1.00
17918;DHT22;9084;50.956;3.106;2024-02-23T10:51:51;7.90;1.00
17918;DHT22;9084;50.956;3.106;2024-02-23T10:54:22;7.90;1.00
17918;DHT22;9084;50.956;3.106;2024-02-23T10:56:49;7.90;1.00
17918;DHT22;9084;50.956;3.106;2024-02-23T10:59:18;8.00;1.00
17918;DHT22;9084;50.956;3.106;2024-02-23T11:01:49;8.00;1.00
17918;DHT22;9084;50.956;3.106;2024-02-23T11:04:16;8.10;1.00
17918;DHT22;9084;50.956;3.106;2024-02-23T11:06:42;8.20;1.00
17918;DHT22;9084;50.956;3.106;2024-02-23T11:09:08;8.30;1.00
17918;DHT22;9084;50.956;3.106;2024-02-23T11:11:37;8.40;1.00
17918;DHT22;9084;50.956;3.106;2024-02-23T11:14:07;8.50;1.00
17918;DHT22;9084;50.956;3.106;2024-02-23T11:16:38;8.60;1.00
17918;DHT22;9084;50.956;3.106;2024-02-23T11:19:06;8.80;1.00
17918;DHT22;9084;50.956;3.106;2024-02-23T11:21:35;8.90;1.00
17918;DHT22;9084;50.956;3.106;2024-02-23T11:24:03;9.00;1.00
17918;DHT22;9084;50.956;3.106;2024-02-23T11:26:32;9.10;1.00
17918;DHT22;9084;50.956;3.106;2024-02-23T11:29:09;9.10;1.00
17918;DHT22;9084;50.956;3.106;2024-02-23T11:31:35;9.20;1.00
17918;DHT22;9084;50.956;3.106;2024-02-23T11:34:00;9.10;1.00
17918;DHT22;9084;50.956;3.106;2024-02-23T11:36:31;9.10;1.00
17918;DHT22;9084;50.956;3.106;2024-02-23T11:38:59;9.10;1.00
17918;DHT22;9084;50.956;3.106;2024-02-23T11:41:26;9.10;1.00
17918;DHT22;9084;50.956;3.106;2024-02-23T11:43:53;9.10;1.00
17918;DHT22;9084;50.956;3.106;2024-02-23T11:46:20;9.10;1.00
17918;DHT22;9084;50.956;3.106;2024-02-23T11:48:47;9.10;1.00
17918;DHT22;9084;50.956;3.106;2024-02-23T11:51:21;9.10;1.00
17918;DHT22;9084;50.956;3.106;2024-02-23T11:53:50;9.00;1.00
17918;DHT22;9084;50.956;3.106;2024-02-23T11:56:16;8.90;1.00
17918;DHT22;9084;50.956;3.106;2024-02-23T11:58:43;8.80;1.00
17918;DHT22;9084;50.956;3.106;2024-02-23T12:01:09;8.70;1.00
17918;DHT22;9084;50.956;3.106;2024-02-23T12:03:35;8.70;1.00
17918;DHT22;9084;50.956;3.106;2024-02-23T12:06:05;8.70;1.00
17918;DHT22;9084;50.956;3.106;2024-02-23T12:08:31;8.70;1.00
17918;DHT22;9084;50.956;3.106;2024-02-23T12:11:05;8.80;1.00
17918;DHT22;9084;50.956;3.106;2024-02-23T12:13:37;8.80;1.00
17918;DHT22;9084;50.956;3.106;2024-02-23T12:16:03;8.90;1.00
17918;DHT22;9084;50.956;3.106;2024-02-23T12:18:29;9.00;1.00
17918;DHT22;9084;50.956;3.106;2024-02-23T12:21:02;9.10;1.00
17918;DHT22;9084;50.956;3.106;2024-02-23T12:23:43;9.50;1.00
17918;DHT22;9084;50.956;3.106;2024-02-23T12:26:11;9.80;1.00
17918;DHT22;9084;50.956;3.106;2024-02-23T12:28:38;10.00;1.00
17918;DHT22;9084;50.956;3.106;2024-02-23T12:31:05;10.10;1.00
17918;DHT22;9084;50.956;3.106;2024-02-23T12:33:34;10.10;1.00
17918;DHT22;9084;50.956;3.106;2024-02-23T12:36:01;10.10;1.00
17918;DHT22;9084;50.956;3.106;2024-02-23T12:38:27;10.00;1.00
17918;DHT22;9084;50.956;3.106;2024-02-23T12:40:56;10.00;1.00
17918;DHT22;9084;50.956;3.106;2024-02-23T12:43:22;9.90;1.00
17918;DHT22;9084;50.956;3.106;2024-02-23T12:45:52;9.80;1.00
17918;DHT22;9084;50.956;3.106;2024-02-23T12:48:18;9.70;1.00
17918;DHT22;9084;50.956;3.106;2024-02-23T12:50:44;9.50;1.00
17918;DHT22;9084;50.956;3.106;2024-02-23T12:53:36;9.20;1.00
17918;DHT22;9084;50.956;3.106;2024-02-23T12:56:04;8.90;20.70
17918;DHT22;9084;50.956;3.106;2024-02-23T12:58:33;8.50;59.50
17918;DHT22;9084;50.956;3.106;2024-02-23T13:00:59;8.20;99.90
17918;DHT22;9084;50.956;3.106;2024-02-23T13:03:26;8.00;99.90
17918;DHT22;9084;50.956;3.106;2024-02-23T13:05:55;7.80;99.90
17918;DHT22;9084;50.956;3.106;2024-02-23T13:08:24;7.80;99.90
17918;DHT22;9084;50.956;3.106;2024-02-23T13:10:54;7.80;99.90
17918;DHT22;9084;50.956;3.106;2024-02-23T13:13:20;7.70;99.90
17918;DHT22;9084;50.956;3.106;2024-02-23T13:15:47;7.70;99.90
17918;DHT22;9084;50.956;3.106;2024-02-23T13:18:13;7.70;99.90
17918;DHT22;9084;50.956;3.106;2024-02-23T13:20:39;7.70;99.90
17918;DHT22;9084;50.956;3.106;2024-02-23T13:23:12;7.70;99.90
17918;DHT22;9084;50.956;3.106;2024-02-23T13:25:39;7.80;99.90
17918;DHT22;9084;50.956;3.106;2024-02-23T13:28:05;7.70;99.90
17918;DHT22;9084;50.956;3.106;2024-02-23T13:30:31;7.50;99.90
17918;DHT22;9084;50.956;3.106;2024-02-23T13:32:57;7.30;99.90
17918;DHT22;9084;50.956;3.106;2024-02-23T13:35:25;7.20;99.90
17918;DHT22;9084;50.956;3.106;2024-02-23T13:37:51;7.10;99.90
17918;DHT22;9084;50.956;3.106;2024-02-23T13:40:18;7.00;99.90
17918;DHT22;9084;50.956;3.106;2024-02-23T13:42:44;6.90;99.90
17918;DHT22;9084;50.956;3.106;2024-02-23T13:45:16;6.70;99.90
17918;DHT22;9084;50.956;3.106;2024-02-23T13:50:24;6.70;99.90
17918;DHT22;9084;50.956;3.106;2024-02-23T13:52:50;6.80;99.90
17918;DHT22;9084;50.956;3.106;2024-02-23T13:55:15;7.00;99.90
17918;DHT22;9084;50.956;3.106;2024-02-23T13:57:46;7.30;99.90
17918;DHT22;9084;50.956;3.106;2024-02-23T14:00:12;7.60;99.90
17918;DHT22;9084;50.956;3.106;2024-02-23T14:02:40;7.80;99.90
17918;DHT22;9084;50.956;3.106;2024-02-23T14:05:07;7.90;99.90
17918;DHT22;9084;50.956;3.106;2024-02-23T14:07:33;7.90;99.90
17918;DHT22;9084;50.956;3.106;2024-02-23T14:09:59;8.00;99.90
17918;DHT22;9084;50.956;3.106;2024-02-23T14:12:24;8.00;99.90
17918;DHT22;9084;50.956;3.106;2024-02-23T14:14:50;8.10;99.90
17918;DHT22;9084;50.956;3.106;2024-02-23T14:17:19;8.10;99.90
17918;DHT22;9084;50.956;3.106;2024-02-23T14:19:44;8.10;99.90
17918;DHT22;9084;50.956;3.106;2024-02-23T14:22:10;8.00;99.90
17918;DHT22;9084;50.956;3.106;2024-02-23T14:24:36;7.90;99.90
17918;DHT22;9084;50.956;3.106;2024-02-23T14:27:02;7.90;99.90
17918;DHT22;9084;50.956;3.106;2024-02-23T14:29:27;7.60;99.90
17918;DHT22;9084;50.956;3.106;2024-02-23T14:31:53;7.50;99.90
17918;DHT22;9084;50.956;3.106;2024-02-23T14:34:19;7.50;99.90
17918;DHT22;9084;50.956;3.106;2024-02-23T14:36:46;7.80;99.90
17918;DHT22;9084;50.956;3.106;2024-02-23T14:39:12;8.10;99.90
17918;DHT22;9084;50.956;3.106;2024-02-23T14:41:39;8.20;99.90
17918;DHT22;9084;50.956;3.106;2024-02-23T14:44:04;8.40;99.90
17918;DHT22;9084;50.956;3.106;2024-02-23T14:46:30;8.40;99.90
17918;DHT22;9084;50.956;3.106;2024-02-23T14:48:56;8.40;99.90
17918;DHT22;9084;50.956;3.106;2024-02-23T14:51:21;8.40;99.90
17918;DHT22;9084;50.956;3.106;2024-02-23T14:53:47;8.40;99.90
17918;DHT22;9084;50.956;3.106;2024-02-23T14:56:13;8.50;99.90
17918;DHT22;9084;50.956;3.106;2024-02-23T14:58:38;8.40;99.90
17918;DHT22;9084;50.956;3.106;2024-02-23T15:01:05;8.50;99.90
17918;DHT22;9084;50.956;3.106;2024-02-23T15:03:34;8.60;99.90
17918;DHT22;9084;50.956;3.106;2024-02-23T15:06:02;8.60;99.90
17918;DHT22;9084;50.956;3.106;2024-02-23T15:08:28;8.60;99.90
17918;DHT22;9084;50.956;3.106;2024-02-23T15:10:54;8.60;99.90
17918;DHT22;9084;50.956;3.106;2024-02-23T15:13:20;8.50;99.90
17918;DHT22;9084;50.956;3.106;2024-02-23T15:15:46;8.50;99.90
17918;DHT22;9084;50.956;3.106;2024-02-23T15:18:12;8.50;99.90
17918;DHT22;9084;50.956;3.106;2024-02-23T15:20:42;8.50;99.90
17918;DHT22;9084;50.956;3.106;2024-02-23T15:23:08;8.40;99.90
17918;DHT22;9084;50.956;3.106;2024-02-23T15:25:35;8.40;99.90
17918;DHT22;9084;50.956;3.106;2024-02-23T15:28:03;8.40;99.90
17918;DHT22;9084;50.956;3.106;2024-02-23T15:30:29;8.40;99.90
17918;DHT22;9084;50.956;3.106;2024-02-23T15:32:57;8.30;99.90
17918;DHT22;9084;50.956;3.106;2024-02-23T15:35:23;8.30;99.90
17918;DHT22;9084;50.956;3.106;2024-02-23T15:37:54;8.20;99.90
17918;DHT22;9084;50.956;3.106;2024-02-23T15:40:25;8.10;99.90
17918;DHT22;9084;50.956;3.106;2024-02-23T15:42:50;8.00;99.90
17918;DHT22;9084;50.956;3.106;2024-02-23T15:45:16;7.90;99.90
17918;DHT22;9084;50.956;3.106;2024-02-23T15:47:42;7.80;99.90
17918;DHT22;9084;50.956;3.106;2024-02-23T15:50:08;7.60;99.90
17918;DHT22;9084;50.956;3.106;2024-02-23T15:52:34;7.40;99.90
17918;DHT22;9084;50.956;3.106;2024-02-23T15:55:00;7.20;99.90
17918;DHT22;9084;50.956;3.106;2024-02-23T15:57:25;7.10;99.90
17918;DHT22;9084;50.956;3.106;2024-02-23T15:59:54;6.90;99.90
17918;DHT22;9084;50.956;3.106;2024-02-23T16:02:19;6.90;99.90
17918;DHT22;9084;50.956;3.106;2024-02-23T16:04:45;6.80;99.90
17918;DHT22;9084;50.956;3.106;2024-02-23T16:07:11;6.70;99.90
17918;DHT22;9084;50.956;3.106;2024-02-23T16:09:39;6.70;99.90
17918;DHT22;9084;50.956;3.106;2024-02-23T16:12:07;6.80;99.90
17918;DHT22;9084;50.956;3.106;2024-02-23T16:14:38;6.90;99.90
17918;DHT22;9084;50.956;3.106;2024-02-23T16:17:03;7.00;99.90
17918;DHT22;9084;50.956;3.106;2024-02-23T16:19:29;7.00;99.90
17918;DHT22;9084;50.956;3.106;2024-02-23T16:21:55;7.10;99.90